sensor_id;sensor_type;location;lat;lon;timestamp;temperature;humidity
25918;DHT22;13899;51.174;4.456;2023-02-01T00:00:49;6.80;99.90
25918;DHT22;13899;51.174;4.456;2023-02-01T00:03:15;6.90;99.90
25918;DHT22;13899;51.174;4.456;2023-02-01T00:05:40;6.90;99.90
25918;DHT22;13899;51.174;4.456;2023-02-01T00:08:06;6.80;99.90
25918;DHT22;13899;51.174;4.456;2023-02-01T00:10:31;6.80;99.90
25918;DHT22;13899;51.174;4.456;2023-02-01T00:12:57;7.00;99.90
25918;DHT22;13899;51.174;4.456;2023-02-01T00:15:23;6.90;99.90
25918;DHT22;13899;51.174;4.456;2023-02-01T00:17:53;7.00;99.90
25918;DHT22;13899;51.174;4.456;2023-02-01T00:20:19;7.20;99.90
25918;DHT22;13899;51.174;4.456;2023-02-01T00:22:45;7.30;99.90
25918;DHT22;13899;51.174;4.456;2023-02-01T00:25:10;7.20;99.90
25918;DHT22;13899;51.174;4.456;2023-02-01T00:27:36;6.90;99.90
25918;DHT22;13899;51.174;4.456;2023-02-01T00:30:02;6.70;99.90
25918;DHT22;13899;51.174;4.456;2023-02-01T00:32:28;6.70;99.90
25918;DHT22;13899;51.174;4.456;2023-02-01T00:34:54;6.90;99.90
25918;DHT22;13899;51.174;4.456;2023-02-01T00:37:21;6.70;99.90
25918;DHT22;13899;51.174;4.456;2023-02-01T00:39:48;6.80;99.90
25918;DHT22;13899;51.174;4.456;2023-02-01T00:42:16;6.70;99.90
25918;DHT22;13899;51.174;4.456;2023-02-01T00:44:42;6.60;99.90
25918;DHT22;13899;51.174;4.456;2023-02-01T00:47:08;6.60;99.90
25918;DHT22;13899;51.174;4.456;2023-02-01T00:49:36;6.60;99.90
25918;DHT22;13899;51.174;4.456;2023-02-01T00:52:02;6.60;99.90
25918;DHT22;13899;51.174;4.456;2023-02-01T00:54:27;6.50;99.90
25918;DHT22;13899;51.174;4.456;2023-02-01T00:56:53;6.60;99.90
25918;DHT22;13899;51.174;4.456;2023-02-01T00:59:19;6.50;99.90
25918;DHT22;13899;51.174;4.456;2023-02-01T01:01:45;6.40;99.90
25918;DHT22;13899;51.174;4.456;2023-02-01T01:04:11;6.40;99.90
25918;DHT22;13899;51.174;4.456;2023-02-01T01:06:36;6.50;99.90
25918;DHT22;13899;51.174;4.456;2023-02-01T01:09:05;6.50;99.90
25918;DHT22;13899;51.174;4.456;2023-02-01T01:11:33;6.60;99.90
25918;DHT22;13899;51.174;4.456;2023-02-01T01:14:07;6.60;99.90
25918;DHT22;13899;51.174;4.456;2023-02-01T01:16:33;6.60;99.90
25918;DHT22;13899;51.174;4.456;2023-02-01T01:19:00;6.60;99.90
25918;DHT22;13899;51.174;4.456;2023-02-01T01:21:26;6.80;99.90
25918;DHT22;13899;51.174;4.456;2023-02-01T01:23:53;6.70;99.90
25918;DHT22;13899;51.174;4.456;2023-02-01T01:26:21;6.50;99.90
25918;DHT22;13899;51.174;4.456;2023-02-01T01:28:48;6.60;99.90
25918;DHT22;13899;51.174;4.456;2023-02-01T01:31:16;6.60;99.90
25918;DHT22;13899;51.174;4.456;2023-02-01T01:33:42;6.70;99.90
25918;DHT22;13899;51.174;4.456;2023-02-01T01:36:10;6.80;99.90
25918;DHT22;13899;51.174;4.456;2023-02-01T01:38:40;6.70;99.90
25918;DHT22;13899;51.174;4.456;2023-02-01T01:41:07;6.80;99.90
25918;DHT22;13899;51.174;4.456;2023-02-01T01:43:53;6.70;99.90
25918;DHT22;13899;51.174;4.456;2023-02-01T01:46:34;6.90;99.90
25918;DHT22;13899;51.174;4.456;2023-02-01T01:52:02;6.50;99.90
25918;DHT22;13899;51.174;4.456;2023-02-01T01:54:34;6.50;99.90
25918;DHT22;13899;51.174;4.456;2023-02-01T01:57:04;6.40;99.90
25918;DHT22;13899;51.174;4.456;2023-02-01T01:59:32;6.60;99.90
25918;DHT22;13899;51.174;4.456;2023-02-01T02:02:00;6.50;99.90
25918;DHT22;13899;51.174;4.456;2023-02-01T02:04:26;6.50;99.90
25918;DHT22;13899;51.174;4.456;2023-02-01T02:06:56;6.50;99.90
25918;DHT22;13899;51.174;4.456;2023-02-01T02:09:24;6.60;99.90
25918;DHT22;13899;51.174;4.456;2023-02-01T02:11:51;6.50;99.90
25918;DHT22;13899;51.174;4.456;2023-02-01T02:14:19;6.60;99.90
25918;DHT22;13899;51.174;4.456;2023-02-01T02:17:02;6.30;99.90
25918;DHT22;13899;51.174;4.456;2023-02-01T02:39:38;6.20;99.90
25918;DHT22;13899;51.174;4.456;2023-02-01T02:48:18;6.10;99.90
25918;DHT22;13899;51.174;4.456;2023-02-01T02:56:49;5.90;99.90
25918;DHT22;13899;51.174;4.456;2023-02-01T02:59:37;6.10;99.90
25918;DHT22;13899;51.174;4.456;2023-02-01T03:02:21;6.40;99.90
25918;DHT22;13899;51.174;4.456;2023-02-01T03:05:06;6.40;99.90
25918;DHT22;13899;51.174;4.456;2023-02-01T03:12:47;6.00;99.90
25918;DHT22;13899;51.174;4.456;2023-02-01T03:15:30;6.10;99.90
25918;DHT22;13899;51.174;4.456;2023-02-01T03:17:58;6.30;99.90
25918;DHT22;13899;51.174;4.456;2023-02-01T03:20:26;6.10;99.90
25918;DHT22;13899;51.174;4.456;2023-02-01T03:22:53;6.10;99.90
25918;DHT22;13899;51.174;4.456;2023-02-01T03:25:26;6.00;99.90
25918;DHT22;13899;51.174;4.456;2023-02-01T03:27:57;5.80;99.90
25918;DHT22;13899;51.174;4.456;2023-02-01T03:30:30;5.90;99.90
25918;DHT22;13899;51.174;4.456;2023-02-01T03:33:23;6.00;99.90
25918;DHT22;13899;51.174;4.456;2023-02-01T03:36:31;5.90;99.90
25918;DHT22;13899;51.174;4.456;2023-02-01T03:41:55;5.90;99.90
25918;DHT22;13899;51.174;4.456;2023-02-01T03:44:37;6.00;99.90
25918;DHT22;13899;51.174;4.456;2023-02-01T03:47:14;6.00;99.90
25918;DHT22;13899;51.174;4.456;2023-02-01T03:49:47;6.00;99.90
25918;DHT22;13899;51.174;4.456;2023-02-01T03:52:22;6.00;99.90
25918;DHT22;13899;51.174;4.456;2023-02-01T03:54:49;5.90;99.90
25918;DHT22;13899;51.174;4.456;2023-02-01T03:57:20;5.90;99.90
25918;DHT22;13899;51.174;4.456;2023-02-01T03:59:47;5.80;99.90
25918;DHT22;13899;51.174;4.456;2023-02-01T04:02:12;5.80;99.90
25918;DHT22;13899;51.174;4.456;2023-02-01T04:04:38;5.70;99.90
25918;DHT22;13899;51.174;4.456;2023-02-01T04:07:04;5.80;99.90
25918;DHT22;13899;51.174;4.456;2023-02-01T04:09:30;6.00;99.90
25918;DHT22;13899;51.174;4.456;2023-02-01T04:11:55;5.80;99.90
25918;DHT22;13899;51.174;4.456;2023-02-01T04:14:22;5.70;99.90
25918;DHT22;13899;51.174;4.456;2023-02-01T04:16:48;5.80;99.90
25918;DHT22;13899;51.174;4.456;2023-02-01T04:19:14;5.70;99.90
25918;DHT22;13899;51.174;4.456;2023-02-01T04:21:41;5.90;99.90
25918;DHT22;13899;51.174;4.456;2023-02-01T04:24:07;5.90;99.90
25918;DHT22;13899;51.174;4.456;2023-02-01T04:26:33;5.80;99.90
25918;DHT22;13899;51.174;4.456;2023-02-01T04:28:59;5.70;99.90
25918;DHT22;13899;51.174;4.456;2023-02-01T04:31:25;5.90;99.90
25918;DHT22;13899;51.174;4.456;2023-02-01T04:33:52;5.70;99.90
25918;DHT22;13899;51.174;4.456;2023-02-01T04:36:19;5.80;99.90
25918;DHT22;13899;51.174;4.456;2023-02-01T04:39:09;5.80;99.90
25918;DHT22;13899;51.174;4.456;2023-02-01T04:41:35;5.70;99.90
25918;DHT22;13899;51.174;4.456;2023-02-01T04:44:02;5.70;99.90
25918;DHT22;13899;51.174;4.456;2023-02-01T04:46:27;5.60;99.90
25918;DHT22;13899;51.174;4.456;2023-02-01T04:48:53;5.60;99.90
25918;DHT22;13899;51.174;4.456;2023-02-01T04:51:23;5.80;99.90
25918;DHT22;13899;51.174;4.456;2023-02-01T04:53:49;5.50;99.90
25918;DHT22;13899;51.174;4.456;2023-02-01T04:56:15;5.60;99.90
25918;DHT22;13899;51.174;4.456;2023-02-01T04:58:41;5.60;99.90
25918;DHT22;13899;51.174;4.456;2023-02-01T05:01:07;5.60;99.90
25918;DHT22;13899;51.174;4.456;2023-02-01T05:03:34;5.50;99.90
25918;DHT22;13899;51.174;4.456;2023-02-01T05:06:00;5.50;99.90
25918;DHT22;13899;51.174;4.456;2023-02-01T05:08:30;5.40;99.90
25918;DHT22;13899;51.174;4.456;2023-02-01T05:10:56;5.50;99.90
25918;DHT22;13899;51.174;4.456;2023-02-01T05:13:22;5.60;99.90
25918;DHT22;13899;51.174;4.456;2023-02-01T05:16:07;5.60;99.90
25918;DHT22;13899;51.174;4.456;2023-02-01T05:18:32;5.50;99.90
25918;DHT22;13899;51.174;4.456;2023-02-01T05:20:58;5.50;99.90
25918;DHT22;13899;51.174;4.456;2023-02-01T05:23:23;5.60;99.90
25918;DHT22;13899;51.174;4.456;2023-02-01T05:25:49;5.60;99.90
25918;DHT22;13899;51.174;4.456;2023-02-01T05:28:17;5.60;99.90
25918;DHT22;13899;51.174;4.456;2023-02-01T05:30:44;5.60;99.90
25918;DHT22;13899;51.174;4.456;2023-02-01T05:33:09;5.60;99.90
25918;DHT22;13899;51.174;4.456;2023-02-01T05:35:35;5.70;99.90
25918;DHT22;13899;51.174;4.456;2023-02-01T05:38:01;5.80;99.90
25918;DHT22;13899;51.174;4.456;2023-02-01T05:40:26;5.80;99.90
25918;DHT22;13899;51.174;4.456;2023-02-01T05:42:52;5.70;99.90
25918;DHT22;13899;51.174;4.456;2023-02-01T05:45:17;5.70;99.90
25918;DHT22;13899;51.174;4.456;2023-02-01T05:47:43;5.60;99.90
25918;DHT22;13899;51.174;4.456;2023-02-01T05:50:09;5.60;99.90
25918;DHT22;13899;51.174;4.456;2023-02-01T05:52:34;5.50;99.90
25918;DHT22;13899;51.174;4.456;2023-02-01T05:55:00;5.50;99.90
25918;DHT22;13899;51.174;4.456;2023-02-01T05:57:25;5.60;99.90
25918;DHT22;13899;51.174;4.456;2023-02-01T05:59:51;5.60;99.90
25918;DHT22;13899;51.174;4.456;2023-02-01T06:02:17;5.60;99.90
25918;DHT22;13899;51.174;4.456;2023-02-01T06:04:42;5.60;99.90
25918;DHT22;13899;51.174;4.456;2023-02-01T06:07:09;5.50;99.90
25918;DHT22;13899;51.174;4.456;2023-02-01T06:09:37;5.50;99.90
25918;DHT22;13899;51.174;4.456;2023-02-01T06:12:04;5.40;99.90
25918;DHT22;13899;51.174;4.456;2023-02-01T06:14:29;5.50;99.90
25918;DHT22;13899;51.174;4.456;2023-02-01T06:16:58;5.40;99.90
25918;DHT22;13899;51.174;4.456;2023-02-01T06:19:23;5.50;99.90
25918;DHT22;13899;51.174;4.456;2023-02-01T06:21:49;5.40;99.90
25918;DHT22;13899;51.174;4.456;2023-02-01T06:24:15;5.40;99.90
25918;DHT22;13899;51.174;4.456;2023-02-01T06:26:40;5.50;99.90
25918;DHT22;13899;51.174;4.456;2023-02-01T06:29:07;5.50;99.90
25918;DHT22;13899;51.174;4.456;2023-02-01T06:31:33;5.60;99.90
25918;DHT22;13899;51.174;4.456;2023-02-01T06:33:59;5.50;99.90
25918;DHT22;13899;51.174;4.456;2023-02-01T06:36:24;5.50;99.90
25918;DHT22;13899;51.174;4.456;2023-02-01T06:38:50;5.50;99.90
25918;DHT22;13899;51.174;4.456;2023-02-01T06:41:15;5.50;99.90
25918;DHT22;13899;51.174;4.456;2023-02-01T06:43:41;5.60;99.90
25918;DHT22;13899;51.174;4.456;2023-02-01T06:46:11;5.40;99.90
25918;DHT22;13899;51.174;4.456;2023-02-01T06:48:37;5.30;99.90
25918;DHT22;13899;51.174;4.456;2023-02-01T06:51:02;5.30;99.90
25918;DHT22;13899;51.174;4.456;2023-02-01T06:53:28;5.30;99.90
25918;DHT22;13899;51.174;4.456;2023-02-01T06:55:55;5.40;99.90
25918;DHT22;13899;51.174;4.456;2023-02-01T06:58:22;5.60;99.90
25918;DHT22;13899;51.174;4.456;2023-02-01T07:00:48;5.50;99.90
25918;DHT22;13899;51.174;4.456;2023-02-01T07:03:14;5.50;99.90
25918;DHT22;13899;51.174;4.456;2023-02-01T07:05:39;5.40;99.90
25918;DHT22;13899;51.174;4.456;2023-02-01T07:08:05;5.70;99.90
25918;DHT22;13899;51.174;4.456;2023-02-01T07:10:30;5.40;99.90
25918;DHT22;13899;51.174;4.456;2023-02-01T07:12:57;5.30;99.90
25918;DHT22;13899;51.174;4.456;2023-02-01T07:15:23;5.30;99.90
25918;DHT22;13899;51.174;4.456;2023-02-01T07:17:48;5.40;99.90
25918;DHT22;13899;51.174;4.456;2023-02-01T07:20:15;5.60;99.90
25918;DHT22;13899;51.174;4.456;2023-02-01T07:22:40;5.40;99.90
25918;DHT22;13899;51.174;4.456;2023-02-01T07:25:06;5.40;99.90
25918;DHT22;13899;51.174;4.456;2023-02-01T07:27:35;5.40;99.90
25918;DHT22;13899;51.174;4.456;2023-02-01T07:30:01;5.50;99.90
25918;DHT22;13899;51.174;4.456;2023-02-01T07:32:28;5.60;99.90
25918;DHT22;13899;51.174;4.456;2023-02-01T07:34:54;5.50;99.90
25918;DHT22;13899;51.174;4.456;2023-02-01T07:37:20;5.40;99.90
25918;DHT22;13899;51.174;4.456;2023-02-01T07:39:45;5.40;99.90
25918;DHT22;13899;51.174;4.456;2023-02-01T07:42:11;5.40;99.90
25918;DHT22;13899;51.174;4.456;2023-02-01T07:44:36;5.30;99.90
25918;DHT22;13899;51.174;4.456;2023-02-01T07:47:02;5.20;99.90
25918;DHT22;13899;51.174;4.456;2023-02-01T07:49:28;5.50;99.90
25918;DHT22;13899;51.174;4.456;2023-02-01T07:51:53;5.50;99.90
25918;DHT22;13899;51.174;4.456;2023-02-01T07:54:19;5.70;99.90
25918;DHT22;13899;51.174;4.456;2023-02-01T07:56:44;5.50;99.90
25918;DHT22;13899;51.174;4.456;2023-02-01T07:59:10;5.70;99.90
25918;DHT22;13899;51.174;4.456;2023-02-01T08:01:37;5.80;99.90
25918;DHT22;13899;51.174;4.456;2023-02-01T08:04:03;5.90;99.90
25918;DHT22;13899;51.174;4.456;2023-02-01T08:06:31;5.90;99.90
25918;DHT22;13899;51.174;4.456;2023-02-01T08:08:57;6.00;99.90
25918;DHT22;13899;51.174;4.456;2023-02-01T08:11:24;5.90;99.90
25918;DHT22;13899;51.174;4.456;2023-02-01T08:13:50;5.90;99.90
25918;DHT22;13899;51.174;4.456;2023-02-01T08:16:17;6.00;99.90
25918;DHT22;13899;51.174;4.456;2023-02-01T08:18:43;6.00;99.90
25918;DHT22;13899;51.174;4.456;2023-02-01T08:21:21;6.10;99.90
25918;DHT22;13899;51.174;4.456;2023-02-01T08:23:47;6.00;99.90
25918;DHT22;13899;51.174;4.456;2023-02-01T08:26:14;6.00;99.90
25918;DHT22;13899;51.174;4.456;2023-02-01T08:28:43;6.10;99.90
25918;DHT22;13899;51.174;4.456;2023-02-01T08:31:13;6.20;99.90
25918;DHT22;13899;51.174;4.456;2023-02-01T08:33:40;6.10;99.90
25918;DHT22;13899;51.174;4.456;2023-02-01T08:36:09;6.10;99.90
25918;DHT22;13899;51.174;4.456;2023-02-01T08:38:36;6.30;99.90
25918;DHT22;13899;51.174;4.456;2023-02-01T08:41:23;6.30;99.90
25918;DHT22;13899;51.174;4.456;2023-02-01T08:43:49;6.50;99.90
25918;DHT22;13899;51.174;4.456;2023-02-01T08:46:16;6.20;99.90
25918;DHT22;13899;51.174;4.456;2023-02-01T08:48:42;6.30;99.90
25918;DHT22;13899;51.174;4.456;2023-02-01T08:51:10;6.30;99.90
25918;DHT22;13899;51.174;4.456;2023-02-01T08:53:37;6.40;99.90
25918;DHT22;13899;51.174;4.456;2023-02-01T08:56:03;6.50;99.90
25918;DHT22;13899;51.174;4.456;2023-02-01T08:58:29;6.60;99.90
25918;DHT22;13899;51.174;4.456;2023-02-01T09:00:55;6.60;99.90
25918;DHT22;13899;51.174;4.456;2023-02-01T09:03:22;6.60;99.90
25918;DHT22;13899;51.174;4.456;2023-02-01T09:05:48;6.70;99.90
25918;DHT22;13899;51.174;4.456;2023-02-01T09:08:13;6.80;99.90
25918;DHT22;13899;51.174;4.456;2023-02-01T09:10:41;6.90;99.90
25918;DHT22;13899;51.174;4.456;2023-02-01T09:13:07;6.90;99.90
25918;DHT22;13899;51.174;4.456;2023-02-01T09:15:33;7.00;99.90
25918;DHT22;13899;51.174;4.456;2023-02-01T09:17:59;7.00;99.90
25918;DHT22;13899;51.174;4.456;2023-02-01T09:20:25;7.10;99.90
25918;DHT22;13899;51.174;4.456;2023-02-01T09:22:55;7.00;99.90
25918;DHT22;13899;51.174;4.456;2023-02-01T09:25:20;7.10;99.90
25918;DHT22;13899;51.174;4.456;2023-02-01T09:27:46;7.20;99.90
25918;DHT22;13899;51.174;4.456;2023-02-01T09:30:12;7.40;99.90
25918;DHT22;13899;51.174;4.456;2023-02-01T09:32:37;7.40;99.90
25918;DHT22;13899;51.174;4.456;2023-02-01T09:35:03;7.50;99.90
25918;DHT22;13899;51.174;4.456;2023-02-01T09:37:29;7.60;99.90
25918;DHT22;13899;51.174;4.456;2023-02-01T09:39:55;7.60;99.90
25918;DHT22;13899;51.174;4.456;2023-02-01T09:45:24;8.00;99.90
25918;DHT22;13899;51.174;4.456;2023-02-01T09:47:59;7.80;99.90
25918;DHT22;13899;51.174;4.456;2023-02-01T09:50:35;7.80;99.90
25918;DHT22;13899;51.174;4.456;2023-02-01T09:55:51;7.90;99.90
25918;DHT22;13899;51.174;4.456;2023-02-01T09:58:39;8.00;99.90
25918;DHT22;13899;51.174;4.456;2023-02-01T10:01:16;8.40;99.90
25918;DHT22;13899;51.174;4.456;2023-02-01T10:03:43;9.00;99.90
25918;DHT22;13899;51.174;4.456;2023-02-01T10:06:19;8.90;99.90
25918;DHT22;13899;51.174;4.456;2023-02-01T10:25:29;11.60;99.90
25918;DHT22;13899;51.174;4.456;2023-02-01T10:28:00;11.70;99.90
25918;DHT22;13899;51.174;4.456;2023-02-01T10:30:34;12.30;99.90
25918;DHT22;13899;51.174;4.456;2023-02-01T10:33:17;12.00;99.90
25918;DHT22;13899;51.174;4.456;2023-02-01T10:35:45;11.60;99.90
25918;DHT22;13899;51.174;4.456;2023-02-01T10:38:44;11.30;99.90
25918;DHT22;13899;51.174;4.456;2023-02-01T10:41:16;12.70;99.90
25918;DHT22;13899;51.174;4.456;2023-02-01T10:43:44;13.20;99.90
25918;DHT22;13899;51.174;4.456;2023-02-01T10:46:10;13.20;99.90
25918;DHT22;13899;51.174;4.456;2023-02-01T10:48:36;13.90;99.90
25918;DHT22;13899;51.174;4.456;2023-02-01T10:51:19;13.70;99.90
25918;DHT22;13899;51.174;4.456;2023-02-01T10:53:53;13.20;99.90
25918;DHT22;13899;51.174;4.456;2023-02-01T10:56:26;13.10;99.90
25918;DHT22;13899;51.174;4.456;2023-02-01T10:59:00;12.70;99.90
25918;DHT22;13899;51.174;4.456;2023-02-01T11:01:39;12.70;99.90
25918;DHT22;13899;51.174;4.456;2023-02-01T11:04:09;12.50;99.90
25918;DHT22;13899;51.174;4.456;2023-02-01T11:06:37;12.50;99.90
25918;DHT22;13899;51.174;4.456;2023-02-01T11:14:17;10.90;99.90
25918;DHT22;13899;51.174;4.456;2023-02-01T11:17:01;10.80;99.90
25918;DHT22;13899;51.174;4.456;2023-02-01T11:19:28;10.60;99.90
25918;DHT22;13899;51.174;4.456;2023-02-01T11:21:54;10.90;99.90
25918;DHT22;13899;51.174;4.456;2023-02-01T11:24:24;10.80;99.90
25918;DHT22;13899;51.174;4.456;2023-02-01T11:26:55;10.60;99.90
25918;DHT22;13899;51.174;4.456;2023-02-01T11:29:21;10.60;99.90
25918;DHT22;13899;51.174;4.456;2023-02-01T11:31:58;10.40;99.90
25918;DHT22;13899;51.174;4.456;2023-02-01T11:34:27;10.50;99.90
25918;DHT22;13899;51.174;4.456;2023-02-01T11:36:57;10.60;99.90
25918;DHT22;13899;51.174;4.456;2023-02-01T11:39:31;10.40;99.90
25918;DHT22;13899;51.174;4.456;2023-02-01T11:47:27;10.40;99.90
25918;DHT22;13899;51.174;4.456;2023-02-01T11:50:02;10.50;99.90
25918;DHT22;13899;51.174;4.456;2023-02-01T12:05:34;10.50;99.90
25918;DHT22;13899;51.174;4.456;2023-02-01T12:11:08;11.00;99.90
25918;DHT22;13899;51.174;4.456;2023-02-01T12:13:45;11.50;99.90
25918;DHT22;13899;51.174;4.456;2023-02-01T12:27:21;10.80;99.90
25918;DHT22;13899;51.174;4.456;2023-02-01T12:30:00;10.90;99.90
25918;DHT22;13899;51.174;4.456;2023-02-01T12:32:38;10.90;99.90
25918;DHT22;13899;51.174;4.456;2023-02-01T12:37:57;10.70;99.90
25918;DHT22;13899;51.174;4.456;2023-02-01T12:43:12;10.40;99.90
25918;DHT22;13899;51.174;4.456;2023-02-01T12:45:57;10.40;99.90
25918;DHT22;13899;51.174;4.456;2023-02-01T12:48:32;10.50;99.90
25918;DHT22;13899;51.174;4.456;2023-02-01T12:51:05;10.40;99.90
25918;DHT22;13899;51.174;4.456;2023-02-01T12:53:47;10.40;99.90
25918;DHT22;13899;51.174;4.456;2023-02-01T12:56:44;10.30;99.90
25918;DHT22;13899;51.174;4.456;2023-02-01T12:59:27;10.50;99.90
25918;DHT22;13899;51.174;4.456;2023-02-01T13:02:05;10.70;99.90
25918;DHT22;13899;51.174;4.456;2023-02-01T13:07:36;10.80;99.90
25918;DHT22;13899;51.174;4.456;2023-02-01T13:13:17;10.70;99.90
25918;DHT22;13899;51.174;4.456;2023-02-01T13:16:18;10.80;99.90
25918;DHT22;13899;51.174;4.456;2023-02-01T13:18:50;10.60;99.90
25918;DHT22;13899;51.174;4.456;2023-02-01T13:21:25;10.70;99.90
25918;DHT22;13899;51.174;4.456;2023-02-01T13:23:52;10.40;99.90
25918;DHT22;13899;51.174;4.456;2023-02-01T13:26:18;10.30;99.90
25918;DHT22;13899;51.174;4.456;2023-02-01T13:29:02;10.40;99.90
25918;DHT22;13899;51.174;4.456;2023-02-01T13:31:52;10.50;99.90
25918;DHT22;13899;51.174;4.456;2023-02-01T13:40:17;10.40;99.90
25918;DHT22;13899;51.174;4.456;2023-02-01T13:45:37;10.40;99.90
25918;DHT22;13899;51.174;4.456;2023-02-01T13:48:25;10.30;99.90
25918;DHT22;13899;51.174;4.456;2023-02-01T13:50:55;10.10;99.90
25918;DHT22;13899;51.174;4.456;2023-02-01T13:53:27;10.20;99.90
25918;DHT22;13899;51.174;4.456;2023-02-01T13:56:05;10.40;99.90
25918;DHT22;13899;51.174;4.456;2023-02-01T13:58:44;10.70;99.90
25918;DHT22;13899;51.174;4.456;2023-02-01T14:03:52;10.60;99.90
25918;DHT22;13899;51.174;4.456;2023-02-01T14:09:12;10.50;99.90
25918;DHT22;13899;51.174;4.456;2023-02-01T14:11:47;10.70;99.90
25918;DHT22;13899;51.174;4.456;2023-02-01T14:19:29;10.10;99.90
25918;DHT22;13899;51.174;4.456;2023-02-01T14:24:50;10.00;99.90
25918;DHT22;13899;51.174;4.456;2023-02-01T14:27:24;10.10;99.90
25918;DHT22;13899;51.174;4.456;2023-02-01T14:29:58;9.90;99.90
25918;DHT22;13899;51.174;4.456;2023-02-01T14:32:37;10.00;99.90
25918;DHT22;13899;51.174;4.456;2023-02-01T14:35:26;10.00;99.90
25918;DHT22;13899;51.174;4.456;2023-02-01T14:37:58;10.10;99.90
25918;DHT22;13899;51.174;4.456;2023-02-01T14:40:26;10.30;99.90
25918;DHT22;13899;51.174;4.456;2023-02-01T14:42:55;10.00;99.90
25918;DHT22;13899;51.174;4.456;2023-02-01T14:47:51;9.90;99.90
25918;DHT22;13899;51.174;4.456;2023-02-01T14:53:06;9.70;99.90
25918;DHT22;13899;51.174;4.456;2023-02-01T14:55:43;9.80;99.90
25918;DHT22;13899;51.174;4.456;2023-02-01T14:59:16;9.90;99.90
25918;DHT22;13899;51.174;4.456;2023-02-01T15:01:31;10.10;99.90
25918;DHT22;13899;51.174;4.456;2023-02-01T15:04:15;9.90;99.90
25918;DHT22;13899;51.174;4.456;2023-02-01T15:06:57;10.00;99.90
25918;DHT22;13899;51.174;4.456;2023-02-01T15:09:29;10.00;99.90
25918;DHT22;13899;51.174;4.456;2023-02-01T15:15:03;9.70;99.90
25918;DHT22;13899;51.174;4.456;2023-02-01T15:17:31;9.70;99.90
25918;DHT22;13899;51.174;4.456;2023-02-01T15:20:15;9.90;99.90
25918;DHT22;13899;51.174;4.456;2023-02-01T15:22:41;10.00;99.90
25918;DHT22;13899;51.174;4.456;2023-02-01T15:25:22;10.00;99.90
25918;DHT22;13899;51.174;4.456;2023-02-01T15:27:49;9.90;99.90
25918;DHT22;13899;51.174;4.456;2023-02-01T15:30:24;9.90;99.90
25918;DHT22;13899;51.174;4.456;2023-02-01T15:32:51;9.90;99.90
25918;DHT22;13899;51.174;4.456;2023-02-01T15:35:38;9.90;99.90
25918;DHT22;13899;51.174;4.456;2023-02-01T15:38:41;9.60;99.90
25918;DHT22;13899;51.174;4.456;2023-02-01T15:46:36;9.60;99.90
25918;DHT22;13899;51.174;4.456;2023-02-01T15:49:04;9.60;99.90
25918;DHT22;13899;51.174;4.456;2023-02-01T15:51:31;9.60;99.90
25918;DHT22;13899;51.174;4.456;2023-02-01T15:54:03;9.50;99.90
25918;DHT22;13899;51.174;4.456;2023-02-01T15:56:34;9.60;99.90
25918;DHT22;13899;51.174;4.456;2023-02-01T15:59:03;9.60;99.90
25918;DHT22;13899;51.174;4.456;2023-02-01T16:01:30;9.60;99.90
25918;DHT22;13899;51.174;4.456;2023-02-01T16:06:48;9.60;99.90
25918;DHT22;13899;51.174;4.456;2023-02-01T16:09:16;9.60;99.90
25918;DHT22;13899;51.174;4.456;2023-02-01T16:14:13;9.50;99.90
25918;DHT22;13899;51.174;4.456;2023-02-01T16:16:39;9.70;99.90
25918;DHT22;13899;51.174;4.456;2023-02-01T16:19:05;9.80;99.90
25918;DHT22;13899;51.174;4.456;2023-02-01T16:21:31;9.70;99.90
25918;DHT22;13899;51.174;4.456;2023-02-01T16:23:57;9.50;99.90
25918;DHT22;13899;51.174;4.456;2023-02-01T16:26:24;9.50;99.90
25918;DHT22;13899;51.174;4.456;2023-02-01T16:28:50;9.60;99.90
25918;DHT22;13899;51.174;4.456;2023-02-01T16:31:17;9.60;99.90
25918;DHT22;13899;51.174;4.456;2023-02-01T16:33:48;9.60;99.90
25918;DHT22;13899;51.174;4.456;2023-02-01T16:36:15;9.60;99.90
25918;DHT22;13899;51.174;4.456;2023-02-01T16:38:41;9.60;99.90
25918;DHT22;13899;51.174;4.456;2023-02-01T16:41:09;9.70;99.90
25918;DHT22;13899;51.174;4.456;2023-02-01T16:43:35;9.90;99.90
25918;DHT22;13899;51.174;4.456;2023-02-01T16:46:01;9.80;99.90
25918;DHT22;13899;51.174;4.456;2023-02-01T16:48:30;9.90;99.90
25918;DHT22;13899;51.174;4.456;2023-02-01T16:51:12;9.70;99.90
25918;DHT22;13899;51.174;4.456;2023-02-01T16:53:38;9.50;99.90
25918;DHT22;13899;51.174;4.456;2023-02-01T16:56:23;9.50;99.90
25918;DHT22;13899;51.174;4.456;2023-02-01T16:58:49;9.60;99.90
25918;DHT22;13899;51.174;4.456;2023-02-01T17:01:17;9.50;99.90
25918;DHT22;13899;51.174;4.456;2023-02-01T17:03:44;9.40;99.90
25918;DHT22;13899;51.174;4.456;2023-02-01T17:06:12;9.50;99.90
25918;DHT22;13899;51.174;4.456;2023-02-01T17:08:44;9.60;99.90
25918;DHT22;13899;51.174;4.456;2023-02-01T17:11:12;9.80;99.90
25918;DHT22;13899;51.174;4.456;2023-02-01T17:13:39;9.60;99.90
25918;DHT22;13899;51.174;4.456;2023-02-01T17:16:25;9.60;99.90
25918;DHT22;13899;51.174;4.456;2023-02-01T17:19:19;9.40;99.90
25918;DHT22;13899;51.174;4.456;2023-02-01T17:21:50;9.50;99.90
25918;DHT22;13899;51.174;4.456;2023-02-01T17:24:20;9.40;99.90
25918;DHT22;13899;51.174;4.456;2023-02-01T17:26:46;9.50;99.90
25918;DHT22;13899;51.174;4.456;2023-02-01T17:29:12;9.70;99.90
25918;DHT22;13899;51.174;4.456;2023-02-01T17:31:43;9.70;99.90
25918;DHT22;13899;51.174;4.456;2023-02-01T17:34:11;9.70;99.90
25918;DHT22;13899;51.174;4.456;2023-02-01T17:36:37;9.80;99.90
25918;DHT22;13899;51.174;4.456;2023-02-01T17:39:04;9.60;99.90
25918;DHT22;13899;51.174;4.456;2023-02-01T17:41:30;9.50;99.90
25918;DHT22;13899;51.174;4.456;2023-02-01T17:43:57;9.30;99.90
25918;DHT22;13899;51.174;4.456;2023-02-01T17:46:23;9.20;99.90
25918;DHT22;13899;51.174;4.456;2023-02-01T17:48:57;9.20;99.90
25918;DHT22;13899;51.174;4.456;2023-02-01T17:51:26;9.30;99.90
25918;DHT22;13899;51.174;4.456;2023-02-01T17:53:54;9.30;99.90
25918;DHT22;13899;51.174;4.456;2023-02-01T17:56:23;9.20;99.90
25918;DHT22;13899;51.174;4.456;2023-02-01T17:58:50;9.30;99.90
25918;DHT22;13899;51.174;4.456;2023-02-01T18:01:19;9.20;99.90
25918;DHT22;13899;51.174;4.456;2023-02-01T18:03:45;9.20;99.90
25918;DHT22;13899;51.174;4.456;2023-02-01T18:06:19;9.10;99.90
25918;DHT22;13899;51.174;4.456;2023-02-01T18:08:45;9.20;99.90
25918;DHT22;13899;51.174;4.456;2023-02-01T18:11:19;9.20;99.90
25918;DHT22;13899;51.174;4.456;2023-02-01T18:13:47;9.10;99.90
25918;DHT22;13899;51.174;4.456;2023-02-01T18:16:20;9.10;99.90
25918;DHT22;13899;51.174;4.456;2023-02-01T18:18:46;9.20;99.90
25918;DHT22;13899;51.174;4.456;2023-02-01T18:21:12;9.30;99.90
25918;DHT22;13899;51.174;4.456;2023-02-01T18:23:38;9.20;99.90
25918;DHT22;13899;51.174;4.456;2023-02-01T18:26:04;9.20;99.90
25918;DHT22;13899;51.174;4.456;2023-02-01T18:28:30;9.20;99.90
25918;DHT22;13899;51.174;4.456;2023-02-01T18:30:55;9.20;99.90
25918;DHT22;13899;51.174;4.456;2023-02-01T18:33:21;9.30;99.90
25918;DHT22;13899;51.174;4.456;2023-02-01T18:35:47;9.20;99.90